createdAt,value
2022-09-26T00:00:38.133Z,5.0
2022-09-26T00:05:44.345Z,5.0
2022-09-26T00:10:50.551Z,5.0
2022-09-26T00:15:56.754Z,5.0
2022-09-26T00:21:02.969Z,5.0
2022-09-26T00:26:08.209Z,5.0
2022-09-26T00:31:14.466Z,5.0
2022-09-26T00:36:19.645Z,5.0
2022-09-26T00:41:25.853Z,5.0
2022-09-26T00:46:32.240Z,5.0
2022-09-26T00:51:38.273Z,5.0
2022-09-26T00:56:44.477Z,5.0
2022-09-26T01:01:50.789Z,5.0
2022-09-26T01:06:56.900Z,5.0
2022-09-26T01:12:03.101Z,4.0
2022-09-26T01:17:09.327Z,5.0
2022-09-26T01:22:15.525Z,5.0
2022-09-26T01:27:21.724Z,5.0
2022-09-26T01:32:27.941Z,5.0
2022-09-26T01:37:34.143Z,5.0
2022-09-26T01:42:40.355Z,4.0
2022-09-26T01:47:46.562Z,5.0
2022-09-26T01:52:52.762Z,5.0
2022-09-26T01:57:58.976Z,5.0
2022-09-26T02:03:05.185Z,5.0
2022-09-26T02:08:11.390Z,5.0
2022-09-26T02:13:17.599Z,5.0
2022-09-26T02:18:23.810Z,4.0
2022-09-26T02:23:29.044Z,4.0
2022-09-26T02:28:35.249Z,3.5
2022-09-26T02:33:40.480Z,4.0
2022-09-26T02:38:46.698Z,4.0
2022-09-26T02:43:52.905Z,3.0
2022-09-26T02:48:59.104Z,4.0
2022-09-26T02:54:05.322Z,3.0
2022-09-26T02:59:11.670Z,3.0
2022-09-26T03:04:17.754Z,3.0
2022-09-26T03:09:23.951Z,3.0
2022-09-26T03:14:30.147Z,3.0
2022-09-26T03:19:36.380Z,3.0
2022-09-26T03:24:42.566Z,3.0
2022-09-26T03:29:48.785Z,3.0
2022-09-26T03:34:55.004Z,2.0
2022-09-26T03:40:01.193Z,3.0
2022-09-26T03:45:07.397Z,2.0
2022-09-26T03:50:13.602Z,3.0
2022-09-26T03:55:19.818Z,2.0
2022-09-26T04:00:26.023Z,2.0
2022-09-26T04:05:32.230Z,2.0
2022-09-26T04:10:38.439Z,2.0
2022-09-26T04:15:44.643Z,2.0
2022-09-26T04:20:49.882Z,2.0
2022-09-26T04:25:56.086Z,2.0
2022-09-26T04:31:02.312Z,2.0
2022-09-26T04:36:08.505Z,2.0
2022-09-26T04:41:14.719Z,2.0
2022-09-26T04:46:22.825Z,2.0
2022-09-26T04:51:27.129Z,2.0
2022-09-26T04:56:33.338Z,2.0
2022-09-26T05:01:39.624Z,2.0
2022-09-26T05:06:45.756Z,2.0
2022-09-26T05:11:51.974Z,2.0
2022-09-26T05:16:58.177Z,2.0
2022-09-26T05:22:04.381Z,2.0
2022-09-26T05:27:10.587Z,2.0
2022-09-26T05:32:16.794Z,2.0
2022-09-26T05:37:23.056Z,2.0
2022-09-26T05:42:29.208Z,3.0
2022-09-26T05:47:35.436Z,3.0
2022-09-26T05:52:41.630Z,3.0
2022-09-26T05:57:47.836Z,3.0
2022-09-26T06:02:54.047Z,3.0
2022-09-26T06:07:59.283Z,3.0
2022-09-26T06:13:05.483Z,3.0
2022-09-26T06:18:10.719Z,4.0
2022-09-26T06:23:16.930Z,3.0
2022-09-26T06:28:22.163Z,3.0
2022-09-26T06:33:32.641Z,3.0
2022-09-26T06:38:34.581Z,3.0
2022-09-26T06:43:40.792Z,3.0
2022-09-26T06:48:46.999Z,3.0
2022-09-26T06:53:53.207Z,3.0
2022-09-26T06:58:59.415Z,3.0
2022-09-26T07:04:05.626Z,3.0
2022-09-26T07:09:12.664Z,3.0
2022-09-26T07:14:18.040Z,3.0
2022-09-26T07:19:24.267Z,3.0
2022-09-26T07:24:30.454Z,2.0
2022-09-26T07:29:36.667Z,3.0
2022-09-26T07:34:42.912Z,2.0
2022-09-26T07:39:52.635Z,2.0
2022-09-26T07:45:23.200Z,2.0
2022-09-26T07:50:01.508Z,2.0
2022-09-26T07:55:07.707Z,2.0
2022-09-26T08:00:13.926Z,2.0
2022-09-26T08:05:20.478Z,2.0
2022-09-26T08:10:26.333Z,2.0
2022-09-26T08:15:31.565Z,2.0
2022-09-26T08:20:37.775Z,2.0
2022-09-26T08:25:43.982Z,2.0
2022-09-26T08:30:49.222Z,2.0
2022-09-26T08:35:55.426Z,2.0
2022-09-26T08:41:01.788Z,2.0
2022-09-26T08:46:07.908Z,2.0
2022-09-26T08:51:14.051Z,2.0
2022-09-26T08:56:20.268Z,2.0
2022-09-26T09:01:26.572Z,2.0
2022-09-26T09:06:32.693Z,2.0
2022-09-26T09:11:38.884Z,2.0
2022-09-26T09:16:45.091Z,2.0
2022-09-26T09:21:51.301Z,2.0
2022-09-26T09:32:03.715Z,2.0
2022-09-26T09:37:09.934Z,2.0
2022-09-26T09:42:16.141Z,2.0
2022-09-26T09:47:22.355Z,2.5
2022-09-26T09:52:28.562Z,3.0
2022-09-26T09:57:34.791Z,2.0
2022-09-26T10:02:41.062Z,3.0
2022-09-26T10:07:47.189Z,3.0
2022-09-26T10:12:53.399Z,3.0
2022-09-26T10:18:22.889Z,3.0
2022-09-26T10:23:04.849Z,3.0
2022-09-26T10:28:11.059Z,2.0
2022-09-26T10:33:17.267Z,3.0
2022-09-26T10:38:22.549Z,3.0
2022-09-26T10:43:28.731Z,3.0
2022-09-26T10:48:34.924Z,3.0
2022-09-26T10:53:41.139Z,3.0
2022-09-26T10:58:47.340Z,3.0
2022-09-26T11:03:53.578Z,3.0
2022-09-26T11:08:59.754Z,3.0
2022-09-26T11:14:06.052Z,3.0
2022-09-26T11:19:12.195Z,3.0
2022-09-26T11:24:18.386Z,3.0
2022-09-26T11:29:24.604Z,3.0
2022-09-26T11:34:30.813Z,3.0
2022-09-26T11:39:37.015Z,3.0
2022-09-26T11:44:43.227Z,2.0
2022-09-26T11:49:49.440Z,3.0
2022-09-26T11:54:55.646Z,2.0
2022-09-26T12:00:01.870Z,3.0
2022-09-26T12:05:08.068Z,3.0
2022-09-26T12:10:14.281Z,2.0
2022-09-26T12:15:20.534Z,3.0
2022-09-26T12:20:26.698Z,3.0
2022-09-26T12:25:31.932Z,3.0
2022-09-26T12:30:38.139Z,3.0
2022-09-26T12:35:44.344Z,3.0
2022-09-26T12:40:50.665Z,3.0
2022-09-26T12:45:56.761Z,3.0
2022-09-26T12:51:02.985Z,3.0
2022-09-26T12:56:09.176Z,3.0
2022-09-26T13:01:15.450Z,3.0
2022-09-26T13:06:21.598Z,3.0
2022-09-26T13:11:31.699Z,3.0
2022-09-26T13:16:34.014Z,3.0
2022-09-26T13:21:40.247Z,3.0
2022-09-26T13:26:46.430Z,3.0
2022-09-26T13:31:52.680Z,3.0
2022-09-26T13:36:58.847Z,3.0
2022-09-26T13:42:05.050Z,3.0
2022-09-26T13:47:11.264Z,3.0
2022-09-26T13:52:17.475Z,3.0
2022-09-26T13:57:23.674Z,3.0
2022-09-26T14:02:29.976Z,2.5
2022-09-26T14:07:36.094Z,2.0
2022-09-26T14:12:41.334Z,2.0
2022-09-26T14:17:47.542Z,2.0
2022-09-26T14:22:52.776Z,2.0
2022-09-26T14:27:58.988Z,2.0
2022-09-26T14:33:05.205Z,2.0
2022-09-26T14:38:11.411Z,3.0
2022-09-26T14:43:17.620Z,3.0
2022-09-26T14:48:23.821Z,3.0
2022-09-26T14:53:30.042Z,2.0
2022-09-26T14:58:36.233Z,3.0
2022-09-26T15:03:42.442Z,3.0
2022-09-26T15:08:48.659Z,2.0
2022-09-26T15:13:54.864Z,3.0
2022-09-26T15:19:01.069Z,3.0
2022-09-26T15:24:07.300Z,3.0
2022-09-26T15:29:13.539Z,2.0
2022-09-26T15:34:19.706Z,2.0
2022-09-26T15:39:25.906Z,2.0
2022-09-26T15:44:32.120Z,2.0
2022-09-26T15:49:38.330Z,2.0
2022-09-26T15:54:44.555Z,2.0
2022-09-26T15:59:50.744Z,3.0
2022-09-26T16:04:56.958Z,2.0
2022-09-26T16:10:02.227Z,2.0
2022-09-26T16:15:08.405Z,2.0
2022-09-26T16:20:13.668Z,2.0
2022-09-26T16:25:19.848Z,2.0
2022-09-26T16:30:26.062Z,2.0
2022-09-26T16:35:32.267Z,2.0
2022-09-26T16:40:38.535Z,2.0
2022-09-26T16:45:44.687Z,2.0
2022-09-26T16:50:50.902Z,2.0
2022-09-26T16:55:57.110Z,2.0
2022-09-26T17:01:03.384Z,2.0
2022-09-26T17:06:09.512Z,2.0
2022-09-26T17:11:15.725Z,2.0
2022-09-26T17:16:21.963Z,2.0
2022-09-26T17:21:28.134Z,2.0
2022-09-26T17:26:34.358Z,3.0
2022-09-26T17:31:40.661Z,3.0
2022-09-26T17:36:46.760Z,3.0
2022-09-26T17:41:52.975Z,3.0
2022-09-26T17:46:59.246Z,4.0
2022-09-26T17:52:05.389Z,4.0
2022-09-26T17:57:11.596Z,4.0
2022-09-26T18:02:17.938Z,5.0
2022-09-26T18:07:23.045Z,5.0
2022-09-26T18:12:29.251Z,6.0
2022-09-26T18:17:34.493Z,7.0
2022-09-26T18:22:40.701Z,7.0
2022-09-26T18:27:46.910Z,8.0
2022-09-26T18:32:53.115Z,7.0
2022-09-26T18:37:59.324Z,7.0
2022-09-26T18:43:05.539Z,7.0
2022-09-26T18:48:11.739Z,6.0
2022-09-26T18:53:17.948Z,7.0
2022-09-26T18:58:24.154Z,7.0
2022-09-26T19:03:30.365Z,7.0
2022-09-26T19:08:36.572Z,8.0
2022-09-26T19:13:42.783Z,7.5
2022-09-26T19:18:48.988Z,7.0
2022-09-26T19:23:55.195Z,7.0
2022-09-26T19:29:01.432Z,7.0
2022-09-26T19:34:07.611Z,7.0
2022-09-26T19:39:13.834Z,7.0
2022-09-26T19:44:20.030Z,7.0
2022-09-26T19:49:26.236Z,7.0
2022-09-26T19:54:32.447Z,7.0
2022-09-26T19:59:38.655Z,7.0
2022-09-26T20:04:43.894Z,6.0
2022-09-26T20:09:50.105Z,5.0
2022-09-26T20:14:55.336Z,5.0
2022-09-26T20:20:01.553Z,5.0
2022-09-26T20:25:07.759Z,4.0
2022-09-26T20:30:13.975Z,4.0
2022-09-26T20:35:20.173Z,5.0
2022-09-26T20:40:26.429Z,4.0
2022-09-26T20:45:32.587Z,4.0
2022-09-26T20:50:38.799Z,4.0
2022-09-26T20:55:45.010Z,4.0
2022-09-26T21:00:51.218Z,3.0
2022-09-26T21:05:57.422Z,3.0
2022-09-26T21:11:03.632Z,3.0
2022-09-26T21:16:09.839Z,2.0
2022-09-26T21:21:16.047Z,2.0
2022-09-26T21:26:22.253Z,2.0
2022-09-26T21:31:28.559Z,2.0
2022-09-26T21:36:35.361Z,2.0
2022-09-26T21:41:40.879Z,2.0
2022-09-26T21:46:47.085Z,1.0
2022-09-26T21:51:53.294Z,1.0
2022-09-26T21:56:59.506Z,1.0
2022-09-26T22:02:04.797Z,1.0
2022-09-26T22:07:10.948Z,1.0
2022-09-26T22:12:17.161Z,1.0
2022-09-26T22:17:22.395Z,1.0
2022-09-26T22:22:28.599Z,1.0
2022-09-26T22:27:34.805Z,1.0
2022-09-26T22:32:41.026Z,1.0
2022-09-26T22:37:47.224Z,1.0
2022-09-26T22:42:53.436Z,1.0
2022-09-26T22:47:59.669Z,1.0
2022-09-26T22:53:05.850Z,1.0
2022-09-26T22:58:12.060Z,2.0
2022-09-26T23:03:18.266Z,1.0
2022-09-26T23:08:24.473Z,2.0
2022-09-26T23:13:30.679Z,1.0
2022-09-26T23:18:36.889Z,2.0
2022-09-26T23:23:43.094Z,2.0
2022-09-26T23:28:49.303Z,1.0
2022-09-26T23:33:55.515Z,1.0
2022-09-26T23:39:01.730Z,1.0
2022-09-26T23:44:07.929Z,1.0
2022-09-26T23:49:14.188Z,1.0
2022-09-26T23:54:20.360Z,1.0
2022-09-26T23:59:26.549Z,1.0
